createdAt,value
2017-12-06T00:00:44.874Z,15.00
2017-12-06T00:03:13.279Z,14.40
2017-12-06T00:05:41.706Z,13.87
2017-12-06T00:08:10.132Z,12.30
2017-12-06T00:10:38.512Z,12.00
2017-12-06T00:13:12.414Z,13.50
2017-12-06T00:15:42.797Z,13.17
2017-12-06T00:18:11.186Z,12.90
2017-12-06T00:20:40.476Z,14.70
2017-12-06T00:23:09.190Z,13.70
2017-12-06T00:25:37.568Z,13.50
2017-12-06T00:28:10.480Z,13.13
2017-12-06T00:30:38.824Z,14.20
2017-12-06T00:33:07.192Z,14.20
2017-12-06T00:35:35.544Z,14.13
2017-12-06T00:38:04.023Z,14.37
2017-12-06T00:40:33.370Z,13.93
2017-12-06T00:43:01.698Z,14.30
2017-12-06T00:45:30.141Z,13.17
2017-12-06T00:47:58.507Z,13.80
2017-12-06T00:50:26.940Z,11.80
2017-12-06T00:52:55.320Z,13.20
2017-12-06T00:55:23.692Z,12.87
2017-12-06T00:57:52.069Z,14.17
2017-12-06T01:00:20.422Z,13.97
2017-12-06T01:02:48.764Z,14.67
2017-12-06T01:05:17.153Z,13.80
2017-12-06T01:07:45.504Z,12.90
2017-12-06T01:10:13.919Z,12.50
2017-12-06T01:12:42.272Z,15.30
2017-12-06T01:15:10.706Z,13.87
2017-12-06T01:17:39.112Z,12.80
2017-12-06T01:20:07.485Z,14.67
2017-12-06T01:22:35.817Z,11.90
2017-12-06T01:25:04.181Z,13.80
2017-12-06T01:27:32.538Z,12.57
2017-12-06T01:30:00.911Z,15.00
2017-12-06T01:32:29.285Z,14.40
2017-12-06T01:34:57.679Z,12.90
2017-12-06T01:37:26.023Z,13.87
2017-12-06T01:39:54.441Z,13.63
2017-12-06T01:42:22.795Z,12.60
2017-12-06T01:44:51.198Z,13.50
2017-12-06T01:47:19.578Z,12.37
2017-12-06T01:49:47.907Z,13.80
2017-12-06T01:52:16.297Z,12.93
2017-12-06T01:54:44.647Z,15.73
2017-12-06T01:57:12.972Z,14.63
2017-12-06T01:59:41.372Z,12.93
2017-12-06T02:02:09.752Z,13.03
2017-12-06T02:04:38.181Z,13.47
2017-12-06T02:07:06.495Z,15.03
2017-12-06T02:09:34.893Z,13.60
2017-12-06T02:12:03.220Z,14.67
2017-12-06T02:14:31.577Z,14.50
2017-12-06T02:16:59.924Z,15.47
2017-12-06T02:19:28.349Z,14.67
2017-12-06T02:21:56.697Z,13.00
2017-12-06T02:24:25.170Z,12.43
2017-12-06T02:26:53.560Z,13.40
2017-12-06T02:29:21.906Z,13.73
2017-12-06T02:31:50.344Z,12.40
2017-12-06T02:34:18.713Z,14.93
2017-12-06T02:36:47.033Z,13.53
2017-12-06T02:39:15.357Z,14.80
2017-12-06T02:41:55.338Z,13.30
2017-12-06T02:44:35.305Z,13.50
2017-12-06T02:47:03.671Z,13.23
2017-12-06T02:49:32.056Z,12.00
2017-12-06T02:52:00.394Z,13.40
2017-12-06T02:54:28.753Z,14.93
2017-12-06T02:56:57.173Z,12.43
2017-12-06T02:59:25.616Z,12.73
2017-12-06T03:01:53.968Z,13.47
2017-12-06T03:04:22.357Z,13.20
2017-12-06T03:06:50.716Z,13.20
2017-12-06T03:09:19.085Z,13.50
2017-12-06T03:11:47.485Z,13.13
2017-12-06T03:14:15.831Z,13.80
2017-12-06T03:16:44.232Z,14.50
2017-12-06T03:19:12.601Z,13.77
2017-12-06T03:21:42.289Z,12.97
2017-12-06T03:24:10.701Z,13.83
2017-12-06T03:26:39.100Z,14.40
2017-12-06T03:29:07.478Z,12.00
2017-12-06T03:31:35.808Z,14.13
2017-12-06T03:34:04.161Z,15.80
2017-12-06T03:39:07.131Z,15.70
2017-12-06T03:41:35.460Z,13.67
2017-12-06T03:44:03.780Z,14.00
2017-12-06T03:46:32.153Z,14.30
2017-12-06T03:49:00.532Z,12.93
2017-12-06T03:51:28.894Z,15.20
2017-12-06T03:53:57.222Z,12.73
2017-12-06T03:56:25.673Z,14.90
2017-12-06T03:58:54.004Z,15.27
2017-12-06T04:01:22.415Z,14.40
2017-12-06T04:03:50.796Z,14.03
2017-12-06T04:06:19.135Z,14.90
2017-12-06T04:08:47.612Z,14.07
2017-12-06T04:11:15.972Z,16.13
2017-12-06T04:13:44.341Z,14.37
2017-12-06T04:16:12.692Z,14.30
2017-12-06T04:18:41.063Z,14.50
2017-12-06T04:21:09.493Z,15.63
2017-12-06T04:23:37.848Z,14.60
2017-12-06T04:26:06.218Z,14.27
2017-12-06T04:28:34.557Z,13.87
2017-12-06T04:31:02.921Z,16.83
2017-12-06T04:33:31.520Z,17.27
2017-12-06T04:35:59.844Z,17.90
2017-12-06T04:38:28.234Z,16.40
2017-12-06T04:40:56.571Z,14.30
2017-12-06T04:43:24.959Z,15.33
2017-12-06T04:45:53.355Z,16.63
2017-12-06T04:48:21.705Z,16.97
2017-12-06T04:50:50.070Z,16.97
2017-12-06T04:53:18.529Z,16.13
2017-12-06T04:55:46.894Z,16.10
2017-12-06T04:58:15.259Z,15.40
2017-12-06T05:00:43.615Z,15.43
2017-12-06T05:03:12.013Z,14.07
2017-12-06T05:05:40.374Z,16.20
2017-12-06T05:08:08.756Z,17.50
2017-12-06T05:10:37.108Z,16.33
2017-12-06T05:13:05.449Z,16.60
2017-12-06T05:15:33.847Z,15.03
2017-12-06T05:18:02.183Z,15.70
2017-12-06T05:20:30.776Z,14.37
2017-12-06T05:22:59.130Z,14.07
2017-12-06T05:25:27.542Z,15.13
2017-12-06T05:27:55.878Z,16.23
2017-12-06T05:30:24.277Z,12.10
2017-12-06T05:32:52.648Z,15.20
2017-12-06T05:35:20.996Z,14.17
2017-12-06T05:37:49.433Z,12.50
2017-12-06T05:40:17.822Z,12.80
2017-12-06T05:42:46.183Z,12.50
2017-12-06T05:45:14.609Z,14.80
2017-12-06T05:47:43.021Z,11.60
2017-12-06T05:50:11.385Z,13.10
2017-12-06T05:52:40.220Z,11.60
2017-12-06T05:55:08.939Z,12.00
2017-12-06T05:57:37.314Z,12.13
2017-12-06T06:00:06.236Z,12.03
2017-12-06T06:02:34.647Z,14.03
2017-12-06T06:07:37.943Z,11.70
2017-12-06T06:10:06.300Z,14.50
2017-12-06T06:12:34.647Z,13.57
2017-12-06T06:15:03.033Z,11.80
2017-12-06T06:17:31.440Z,12.13
2017-12-06T06:20:00.815Z,13.03
2017-12-06T06:22:29.618Z,13.00
2017-12-06T06:24:58.036Z,10.93
2017-12-06T06:27:26.525Z,12.10
2017-12-06T06:29:54.965Z,12.83
2017-12-06T06:32:23.298Z,13.77
2017-12-06T06:34:51.725Z,12.50
2017-12-06T06:37:20.182Z,13.60
2017-12-06T06:39:49.022Z,11.50
2017-12-06T06:42:17.440Z,12.00
2017-12-06T06:47:18.351Z,11.20
2017-12-06T06:49:47.134Z,12.47
2017-12-06T06:52:15.622Z,14.20
2017-12-06T06:54:44.117Z,14.10
2017-12-06T06:57:12.481Z,11.40
2017-12-06T06:59:40.879Z,12.57
2017-12-06T07:04:45.367Z,12.83
2017-12-06T07:07:13.874Z,12.33
2017-12-06T07:09:42.467Z,14.17
2017-12-06T07:12:11.073Z,12.77
2017-12-06T07:14:39.751Z,14.03
2017-12-06T07:17:08.330Z,13.63
2017-12-06T07:19:42.589Z,13.07
2017-12-06T07:22:11.055Z,12.37
2017-12-06T07:24:41.232Z,13.10
2017-12-06T07:29:42.869Z,12.40
2017-12-06T07:32:11.437Z,12.23
2017-12-06T07:34:40.195Z,13.70
2017-12-06T07:37:08.699Z,12.63
2017-12-06T07:39:37.138Z,12.87
2017-12-06T07:44:38.858Z,13.67
2017-12-06T07:49:39.935Z,14.13
2017-12-06T07:52:12.013Z,11.10
2017-12-06T07:59:53.073Z,13.03
2017-12-06T08:04:57.113Z,13.30
2017-12-06T08:10:01.057Z,11.03
2017-12-06T08:12:29.896Z,13.17
2017-12-06T08:14:58.352Z,11.87
2017-12-06T08:17:30.508Z,15.60
2017-12-06T08:22:35.647Z,14.67
2017-12-06T08:25:04.927Z,14.37
2017-12-06T08:27:37.203Z,15.47
2017-12-06T08:32:38.510Z,13.90
2017-12-06T08:35:07.033Z,13.90
2017-12-06T08:37:39.020Z,13.07
2017-12-06T08:40:08.406Z,13.00
2017-12-06T08:42:43.460Z,14.23
2017-12-06T08:47:47.925Z,15.17
2017-12-06T08:52:57.418Z,13.90
2017-12-06T08:55:27.470Z,14.10
2017-12-06T09:03:02.814Z,15.57
2017-12-06T09:13:12.366Z,12.73
2017-12-06T09:20:46.861Z,12.90
2017-12-06T09:23:15.575Z,12.53
2017-12-06T09:25:45.619Z,11.97
2017-12-06T09:30:46.582Z,11.97
2017-12-06T09:33:14.996Z,12.23
2017-12-06T09:35:43.816Z,11.50
2017-12-06T09:38:15.853Z,10.80
2017-12-06T09:40:47.791Z,10.67
2017-12-06T09:43:16.387Z,10.53
2017-12-06T09:45:44.911Z,11.10
2017-12-06T09:50:47.673Z,10.43
2017-12-06T09:55:48.958Z,11.83
2017-12-06T10:06:41.210Z,7.93
2017-12-06T10:09:11.434Z,7.50
2017-12-06T10:11:40.923Z,8.67
2017-12-06T10:19:19.916Z,7.43
2017-12-06T10:24:24.716Z,8.27
2017-12-06T10:26:56.785Z,7.90
2017-12-06T10:29:25.391Z,8.20
2017-12-06T10:34:26.919Z,7.97
2017-12-06T10:36:57.251Z,7.53
2017-12-06T10:39:26.020Z,7.87
2017-12-06T10:44:29.277Z,10.47
2017-12-06T10:54:41.232Z,14.80
2017-12-06T11:07:22.835Z,7.10
2017-12-06T11:09:52.089Z,9.30
2017-12-06T11:12:21.090Z,7.73
2017-12-06T11:14:51.520Z,8.60
2017-12-06T11:17:20.009Z,8.23
2017-12-06T11:19:48.600Z,8.07
2017-12-06T11:22:17.571Z,9.77
2017-12-06T11:24:48.127Z,7.00
2017-12-06T11:27:17.445Z,8.77
2017-12-06T11:34:55.239Z,10.50
2017-12-06T11:50:21.346Z,9.77
2017-12-06T12:00:36.024Z,10.90
2017-12-06T12:16:28.550Z,13.20
2017-12-06T12:18:58.857Z,14.37
2017-12-06T12:49:40.429Z,15.60
2017-12-06T12:55:19.181Z,16.17
2017-12-06T13:03:09.771Z,16.90
2017-12-06T13:05:41.072Z,16.70
2017-12-06T13:08:16.391Z,19.53
2017-12-06T13:21:08.801Z,17.07
2017-12-06T13:23:37.588Z,17.07
2017-12-06T13:39:09.455Z,17.50
2017-12-06T13:41:41.547Z,17.43
2017-12-06T13:44:13.812Z,18.20
2017-12-06T13:46:42.312Z,18.33
2017-12-06T13:49:13.449Z,15.30
2017-12-06T14:01:57.976Z,14.13
2017-12-06T14:07:04.739Z,16.73
2017-12-06T14:09:37.801Z,17.00
2017-12-06T14:12:08.046Z,15.57
2017-12-06T14:22:18.406Z,12.83
2017-12-06T14:29:54.260Z,14.30
2017-12-06T14:37:30.046Z,13.03
2017-12-06T14:39:59.798Z,14.20
2017-12-06T14:42:31.212Z,12.63
2017-12-06T14:45:00.293Z,13.83
2017-12-06T15:05:35.888Z,15.93
2017-12-06T15:15:45.553Z,16.43
2017-12-06T15:29:50.166Z,15.43
2017-12-06T15:34:54.969Z,15.97
2017-12-06T15:39:56.429Z,14.93
2017-12-06T16:06:19.834Z,15.80
2017-12-06T16:11:22.732Z,14.63
2017-12-06T16:13:55.923Z,17.87
2017-12-06T16:18:57.570Z,17.20
2017-12-06T16:21:34.562Z,16.47
2017-12-06T16:24:04.299Z,15.83
2017-12-06T16:31:55.375Z,16.13
2017-12-06T16:40:10.695Z,15.63
2017-12-06T17:14:10.523Z,20.80
2017-12-06T17:16:39.113Z,21.27
2017-12-06T17:24:18.119Z,22.07
2017-12-06T17:37:12.866Z,19.67
2017-12-06T17:52:57.104Z,25.27
2017-12-06T18:11:13.735Z,21.27
2017-12-06T18:18:48.449Z,22.00
2017-12-06T18:26:28.726Z,23.80
2017-12-06T18:28:58.544Z,22.50
2017-12-06T18:33:59.992Z,25.00
2017-12-06T18:36:30.911Z,23.27
2017-12-06T18:39:00.249Z,23.83
2017-12-06T18:44:04.310Z,23.10
2017-12-06T18:49:08.649Z,25.17
2017-12-06T18:51:42.027Z,26.80
2017-12-06T18:59:17.707Z,24.97
2017-12-06T19:06:56.055Z,25.33
2017-12-06T19:09:30.900Z,23.40
2017-12-06T19:11:59.339Z,26.00
2017-12-06T19:14:32.326Z,25.53
2017-12-06T19:17:00.746Z,24.30
2017-12-06T19:19:29.166Z,24.60
2017-12-06T19:24:33.682Z,23.30
2017-12-06T19:27:02.192Z,26.43
2017-12-06T19:29:30.913Z,24.80
2017-12-06T19:34:32.092Z,21.97
2017-12-06T19:39:33.046Z,25.57
2017-12-06T19:42:01.560Z,24.90
2017-12-06T19:44:30.069Z,26.07
2017-12-06T19:46:58.859Z,26.90
2017-12-06T19:49:27.507Z,26.43
2017-12-06T19:51:55.884Z,28.77
2017-12-06T19:54:30.848Z,25.07
2017-12-06T19:57:00.735Z,26.43
2017-12-06T19:59:29.155Z,26.23
2017-12-06T20:01:57.763Z,26.90
2017-12-06T20:04:28.158Z,26.07
2017-12-06T20:09:31.351Z,24.33
2017-12-06T20:17:10.237Z,26.03
2017-12-06T20:19:40.246Z,26.43
2017-12-06T20:22:08.943Z,22.93
2017-12-06T20:24:37.347Z,25.10
2017-12-06T20:34:51.462Z,22.10
2017-12-06T20:37:19.956Z,23.60
2017-12-06T20:39:48.367Z,21.57
2017-12-06T20:42:16.867Z,23.67
2017-12-06T20:44:45.472Z,22.70
2017-12-06T20:49:51.625Z,19.77
2017-12-06T20:52:21.870Z,22.77
2017-12-06T20:54:50.280Z,23.50
2017-12-06T20:57:18.658Z,25.53
2017-12-06T21:04:53.447Z,24.73
2017-12-06T21:07:21.839Z,26.73
2017-12-06T21:09:50.231Z,24.70
2017-12-06T21:12:20.376Z,24.80
2017-12-06T21:14:49.000Z,26.60
2017-12-06T21:17:17.495Z,24.90
2017-12-06T21:19:45.863Z,25.13
2017-12-06T21:22:18.091Z,25.80
2017-12-06T21:24:47.785Z,24.67
2017-12-06T21:27:17.000Z,23.90
2017-12-06T21:29:46.303Z,23.90
2017-12-06T21:32:14.654Z,22.40
2017-12-06T21:34:43.042Z,24.77
2017-12-06T21:37:11.373Z,22.77
2017-12-06T21:39:40.818Z,25.20
2017-12-06T21:42:09.422Z,24.23
2017-12-06T21:44:37.808Z,25.10
2017-12-06T21:47:08.705Z,25.57
2017-12-06T21:49:37.178Z,24.80
2017-12-06T21:52:05.681Z,25.77
2017-12-06T21:54:34.020Z,25.27
2017-12-06T21:57:02.384Z,25.43
2017-12-06T21:59:30.733Z,25.77
2017-12-06T22:02:00.046Z,24.20
2017-12-06T22:04:29.120Z,25.73
2017-12-06T22:06:59.013Z,27.03
2017-12-06T22:09:28.306Z,22.80
2017-12-06T22:11:56.674Z,22.23
2017-12-06T22:14:25.163Z,24.30
2017-12-06T22:16:53.556Z,24.77
2017-12-06T22:19:22.000Z,23.97
2017-12-06T22:21:50.409Z,23.07
2017-12-06T22:24:18.771Z,23.60
2017-12-06T22:26:47.102Z,23.20
2017-12-06T22:29:15.467Z,24.70
2017-12-06T22:31:44.224Z,24.67
2017-12-06T22:34:12.617Z,21.80
2017-12-06T22:36:42.059Z,25.17
2017-12-06T22:39:10.453Z,27.13
2017-12-06T22:41:38.849Z,23.47
2017-12-06T22:44:07.386Z,21.17
2017-12-06T22:46:35.795Z,24.03
2017-12-06T22:49:04.165Z,22.93
2017-12-06T22:51:32.545Z,24.53
2017-12-06T22:54:02.129Z,23.90
2017-12-06T22:56:30.511Z,26.00
2017-12-06T22:58:58.889Z,26.80
2017-12-06T23:01:27.277Z,25.57
2017-12-06T23:03:55.625Z,25.47
2017-12-06T23:06:24.058Z,24.60
2017-12-06T23:08:52.380Z,25.50
2017-12-06T23:11:20.770Z,24.50
2017-12-06T23:13:49.122Z,26.57
2017-12-06T23:16:17.523Z,26.23
2017-12-06T23:18:45.900Z,26.30
2017-12-06T23:21:14.278Z,24.13
2017-12-06T23:23:42.640Z,24.40
2017-12-06T23:26:10.969Z,27.00
2017-12-06T23:28:39.325Z,25.93
2017-12-06T23:31:07.649Z,28.33
2017-12-06T23:33:36.041Z,24.60
2017-12-06T23:36:04.393Z,27.00
2017-12-06T23:38:32.726Z,25.70
2017-12-06T23:41:01.154Z,23.97
2017-12-06T23:43:29.492Z,26.07
2017-12-06T23:45:57.884Z,25.40
2017-12-06T23:48:26.254Z,26.43
2017-12-06T23:50:54.589Z,26.73
2017-12-06T23:53:22.948Z,27.10
2017-12-06T23:55:51.311Z,27.87
2017-12-06T23:58:19.754Z,25.37
